createdAt,value
2018-08-20T00:00:50.021Z,101610.32
2018-08-20T00:04:14.552Z,101615.92
2018-08-20T00:07:39.007Z,101617.61
2018-08-20T00:11:03.531Z,101616.52
2018-08-20T00:14:27.990Z,101618.93
2018-08-20T00:17:52.440Z,101617.03
2018-08-20T00:21:16.899Z,101614.92
2018-08-20T00:24:41.340Z,101618.70
2018-08-20T00:28:05.765Z,101617.44
2018-08-20T00:31:30.227Z,101614.45
2018-08-20T00:34:54.624Z,101613.69
2018-08-20T00:38:19.088Z,101612.19
2018-08-20T00:41:43.719Z,101619.02
2018-08-20T00:45:08.815Z,101613.69
2018-08-20T00:48:33.269Z,101610.79
2018-08-20T00:51:57.717Z,101609.53
2018-08-20T00:55:22.138Z,101611.13
2018-08-20T00:58:46.539Z,101603.76
2018-08-20T01:02:11.015Z,101609.46
2018-08-20T01:05:35.447Z,101601.47
2018-08-20T01:09:00.122Z,101606.77
2018-08-20T01:12:24.731Z,101602.11
2018-08-20T01:15:49.183Z,101600.56
2018-08-20T01:19:13.604Z,101596.48
2018-08-20T01:22:38.086Z,101599.51
2018-08-20T01:26:02.606Z,101607.91
2018-08-20T01:29:27.040Z,101606.20
2018-08-20T01:32:51.962Z,101612.09
2018-08-20T01:36:16.402Z,101604.44
2018-08-20T01:39:40.863Z,101600.14
2018-08-20T01:43:05.316Z,101602.50
2018-08-20T01:46:29.810Z,101605.83
2018-08-20T01:49:54.240Z,101606.25
2018-08-20T01:53:18.693Z,101605.04
2018-08-20T01:56:43.109Z,101602.05
2018-08-20T02:00:07.569Z,101598.09
2018-08-20T02:03:32.223Z,101605.84
2018-08-20T02:06:56.629Z,101600.27
2018-08-20T02:10:21.115Z,101596.64
2018-08-20T02:13:45.657Z,101596.28
2018-08-20T02:17:10.089Z,101594.45
2018-08-20T02:20:34.575Z,101590.02
2018-08-20T02:23:59.040Z,101587.81
2018-08-20T02:27:23.485Z,101589.45
2018-08-20T02:30:47.903Z,101592.30
2018-08-20T02:34:12.508Z,101591.39
2018-08-20T02:37:42.057Z,101592.42
2018-08-20T02:41:06.673Z,101584.74
2018-08-20T02:44:31.137Z,101589.32
2018-08-20T02:47:55.576Z,101577.24
2018-08-20T02:51:19.973Z,101573.47
2018-08-20T02:54:44.389Z,101578.16
2018-08-20T02:58:08.810Z,101588.94
2018-08-20T03:01:33.251Z,101579.66
2018-08-20T03:04:57.731Z,101584.11
2018-08-20T03:08:22.192Z,101585.06
2018-08-20T03:11:46.627Z,101583.63
2018-08-20T03:15:11.823Z,101582.61
2018-08-20T03:18:36.240Z,101583.02
2018-08-20T03:22:00.660Z,101577.85
2018-08-20T03:25:25.948Z,101582.37
2018-08-20T03:28:50.357Z,101587.30
2018-08-20T03:32:14.774Z,101589.06
2018-08-20T03:35:39.198Z,101595.05
2018-08-20T03:39:04.586Z,101601.99
2018-08-20T03:42:29.023Z,101601.04
2018-08-20T03:45:53.547Z,101596.36
2018-08-20T03:49:18.079Z,101593.24
2018-08-20T03:52:42.527Z,101592.59
2018-08-20T03:56:07.153Z,101586.53
2018-08-20T03:59:36.298Z,101588.28
2018-08-20T04:03:00.720Z,101584.92
2018-08-20T04:06:25.163Z,101581.90
2018-08-20T04:09:49.568Z,101579.95
2018-08-20T04:13:14.009Z,101588.77
2018-08-20T04:16:38.441Z,101593.23
2018-08-20T04:20:02.984Z,101596.14
2018-08-20T04:23:27.453Z,101598.11
2018-08-20T04:26:52.089Z,101596.04
2018-08-20T04:30:16.527Z,101594.98
2018-08-20T04:33:40.951Z,101593.11
2018-08-20T04:37:05.431Z,101587.30
2018-08-20T04:40:29.904Z,101588.23
2018-08-20T04:43:54.531Z,101591.03
2018-08-20T04:47:19.241Z,101585.36
2018-08-20T04:50:43.766Z,101590.42
2018-08-20T04:54:08.269Z,101591.00
2018-08-20T04:57:32.672Z,101587.30
2018-08-20T05:00:58.091Z,101591.06
2018-08-20T05:04:22.553Z,101597.19
2018-08-20T05:07:47.020Z,101595.03
2018-08-20T05:11:11.603Z,101608.67
2018-08-20T05:14:36.032Z,101609.00
2018-08-20T05:18:00.631Z,101604.08
2018-08-20T05:21:25.252Z,101612.17
2018-08-20T05:24:49.690Z,101602.77
2018-08-20T05:28:14.125Z,101605.02
2018-08-20T05:31:38.553Z,101604.27
2018-08-20T05:35:02.962Z,101606.95
2018-08-20T05:38:27.467Z,101612.67
2018-08-20T05:41:51.882Z,101612.63
2018-08-20T05:45:16.306Z,101623.09
2018-08-20T05:48:40.751Z,101628.77
2018-08-20T05:52:05.376Z,101629.47
2018-08-20T05:55:29.803Z,101630.86
2018-08-20T05:58:54.206Z,101632.58
2018-08-20T06:02:18.714Z,101633.45
2018-08-20T06:05:43.171Z,101636.23
2018-08-20T06:09:09.943Z,101636.73
2018-08-20T06:12:34.746Z,101639.53
2018-08-20T06:15:59.320Z,101641.56
2018-08-20T06:19:23.809Z,101647.45
2018-08-20T06:22:48.217Z,101644.16
2018-08-20T06:26:12.758Z,101655.50
2018-08-20T06:29:37.211Z,101656.92
2018-08-20T06:33:01.694Z,101658.95
2018-08-20T06:36:26.242Z,101661.85
2018-08-20T06:39:50.728Z,101665.61
2018-08-20T06:43:15.111Z,101665.30
2018-08-20T06:46:39.573Z,101665.64
2018-08-20T06:50:05.432Z,101669.16
2018-08-20T06:53:29.817Z,101674.39
2018-08-20T06:56:54.255Z,101678.08
2018-08-20T07:00:25.282Z,101676.87
2018-08-20T07:03:49.718Z,101673.10
2018-08-20T07:07:14.184Z,101681.53
2018-08-20T07:10:43.907Z,101688.27
2018-08-20T07:14:08.370Z,101693.48
2018-08-20T07:17:32.840Z,101702.92
2018-08-20T07:20:57.540Z,101700.50
2018-08-20T07:24:21.944Z,101703.39
2018-08-20T07:27:46.384Z,101695.94
2018-08-20T07:31:10.836Z,101703.91
2018-08-20T07:34:35.288Z,101709.81
2018-08-20T07:37:59.752Z,101709.30
2018-08-20T07:41:24.561Z,101715.19
2018-08-20T07:44:49.015Z,101721.58
2018-08-20T07:48:13.457Z,101718.28
2018-08-20T07:51:37.875Z,101723.98
2018-08-20T07:55:02.295Z,101725.92
2018-08-20T07:58:26.807Z,101728.37
2018-08-20T08:01:51.394Z,101721.70
2018-08-20T08:05:15.868Z,101721.19
2018-08-20T08:08:40.377Z,101725.66
2018-08-20T08:12:04.833Z,101732.37
2018-08-20T08:15:29.314Z,101736.78
2018-08-20T08:18:53.948Z,101740.39
2018-08-20T08:22:18.419Z,101739.46
2018-08-20T08:25:42.849Z,101740.68
2018-08-20T08:29:07.352Z,101736.41
2018-08-20T08:32:31.862Z,101734.61
2018-08-20T08:35:56.376Z,101738.55
2018-08-20T08:39:20.820Z,101738.49
2018-08-20T08:42:45.385Z,101742.02
2018-08-20T08:46:09.821Z,101749.03
2018-08-20T08:49:34.259Z,101756.73
2018-08-20T08:52:58.699Z,101749.73
2018-08-20T08:56:23.163Z,101749.42
2018-08-20T08:59:47.642Z,101748.59
2018-08-20T09:03:12.107Z,101759.88
2018-08-20T09:06:36.541Z,101758.42
2018-08-20T09:10:01.004Z,101762.89
2018-08-20T09:13:25.517Z,101764.88
2018-08-20T09:16:49.936Z,101763.38
2018-08-20T09:20:20.998Z,101764.01
2018-08-20T09:23:45.447Z,101767.78
2018-08-20T09:27:10.227Z,101763.20
2018-08-20T09:30:34.677Z,101764.88
2018-08-20T09:33:59.386Z,101771.28
2018-08-20T09:37:23.790Z,101771.91
2018-08-20T09:40:48.275Z,101772.37
2018-08-20T09:44:12.750Z,101769.63
2018-08-20T09:47:38.344Z,101775.23
2018-08-20T09:51:02.800Z,101775.69
2018-08-20T09:54:27.261Z,101774.70
2018-08-20T09:57:51.706Z,101770.47
2018-08-20T10:01:16.148Z,101772.84
2018-08-20T10:04:40.565Z,101766.95
2018-08-20T10:08:05.043Z,101764.76
2018-08-20T10:11:29.486Z,101767.03
2018-08-20T10:14:53.900Z,101766.74
2018-08-20T10:18:18.368Z,101760.46
2018-08-20T10:21:42.774Z,101754.31
2018-08-20T10:25:07.660Z,101751.13
2018-08-20T10:28:32.170Z,101750.50
2018-08-20T10:31:56.649Z,101757.27
2018-08-20T10:35:21.105Z,101761.19
2018-08-20T10:38:45.550Z,101767.17
2018-08-20T10:42:10.035Z,101759.77
2018-08-20T10:45:39.814Z,101761.53
2018-08-20T10:49:04.300Z,101766.80
2018-08-20T10:52:28.807Z,101759.89
2018-08-20T10:55:53.456Z,101753.55
2018-08-20T10:59:17.847Z,101754.75
2018-08-20T11:02:42.390Z,101749.92
2018-08-20T11:06:06.868Z,101757.18
2018-08-20T11:09:31.290Z,101754.80
2018-08-20T11:12:55.739Z,101753.03
2018-08-20T11:16:20.195Z,101762.36
2018-08-20T11:19:44.602Z,101750.70
2018-08-20T11:23:09.043Z,101748.63
2018-08-20T11:26:33.482Z,101747.18
2018-08-20T11:29:57.946Z,101753.44
2018-08-20T11:33:22.430Z,101751.89
2018-08-20T11:36:46.904Z,101755.61
2018-08-20T11:40:17.825Z,101755.61
2018-08-20T11:43:42.381Z,101751.31
2018-08-20T11:47:06.842Z,101749.39
2018-08-20T11:50:31.269Z,101747.63
2018-08-20T11:53:55.669Z,101745.02
2018-08-20T11:57:20.142Z,101750.36
2018-08-20T12:00:44.575Z,101745.95
2018-08-20T12:04:08.996Z,101737.95
2018-08-20T12:07:33.423Z,101747.23
2018-08-20T12:10:57.852Z,101754.56
2018-08-20T12:14:22.324Z,101759.34
2018-08-20T12:17:46.719Z,101765.28
2018-08-20T12:21:11.497Z,101775.97
2018-08-20T12:24:36.078Z,101774.66
2018-08-20T12:28:00.523Z,101784.62
2018-08-20T12:31:24.937Z,101782.39
2018-08-20T12:34:49.503Z,101778.34
2018-08-20T12:38:13.941Z,101777.31
2018-08-20T12:41:38.397Z,101767.33
2018-08-20T12:45:02.844Z,101773.56
2018-08-20T12:48:27.297Z,101775.98
2018-08-20T12:51:51.702Z,101774.20
2018-08-20T12:55:16.118Z,101773.03
2018-08-20T12:58:48.282Z,101771.10
2018-08-20T13:02:12.751Z,101776.22
2018-08-20T13:05:37.153Z,101769.51
2018-08-20T13:09:02.143Z,101769.34
2018-08-20T13:12:26.497Z,101761.41
2018-08-20T13:15:51.015Z,101762.00
2018-08-20T13:19:15.385Z,101761.16
2018-08-20T13:22:39.812Z,101762.02
2018-08-20T13:26:04.384Z,101760.53
2018-08-20T13:29:28.832Z,101766.52
2018-08-20T13:32:53.379Z,101764.62
2018-08-20T13:36:17.812Z,101760.31
2018-08-20T13:39:42.272Z,101761.56
2018-08-20T13:43:07.115Z,101760.62
2018-08-20T13:46:31.552Z,101753.94
2018-08-20T13:50:02.225Z,101757.16
2018-08-20T13:53:26.595Z,101761.04
2018-08-20T13:56:51.023Z,101764.19
2018-08-20T14:00:17.141Z,101761.66
2018-08-20T14:03:41.544Z,101762.47
2018-08-20T14:07:06.020Z,101760.11
2018-08-20T14:10:30.447Z,101755.97
2018-08-20T14:13:54.905Z,101757.79
2018-08-20T14:17:19.346Z,101755.55
2018-08-20T14:20:57.944Z,101767.21
2018-08-20T14:24:22.399Z,101762.95
2018-08-20T14:27:46.790Z,101757.50
2018-08-20T14:31:11.238Z,101755.51
2018-08-20T14:34:35.698Z,101753.88
2018-08-20T14:38:00.136Z,101749.37
2018-08-20T14:41:24.566Z,101750.03
2018-08-20T14:44:48.978Z,101752.16
2018-08-20T14:48:13.438Z,101748.41
2018-08-20T14:51:37.930Z,101747.83
2018-08-20T14:55:02.378Z,101746.03
2018-08-20T14:58:26.809Z,101746.12
2018-08-20T15:01:51.327Z,101737.28
2018-08-20T15:05:15.729Z,101736.67
2018-08-20T15:08:40.649Z,101740.87
2018-08-20T15:12:05.519Z,101732.64
2018-08-20T15:15:29.961Z,101735.17
2018-08-20T15:18:54.381Z,101733.59
2018-08-20T15:22:18.813Z,101730.80
2018-08-20T15:25:43.247Z,101739.97
2018-08-20T15:29:07.963Z,101735.94
2018-08-20T15:32:32.468Z,101736.39
2018-08-20T15:35:57.150Z,101731.17
2018-08-20T15:39:21.605Z,101735.36
2018-08-20T15:46:11.284Z,101737.33
2018-08-20T15:49:35.608Z,101737.30
2018-08-20T15:53:00.098Z,101732.77
2018-08-20T15:56:24.581Z,101732.03
2018-08-20T15:59:49.043Z,101738.91
2018-08-20T16:03:13.454Z,101735.31
2018-08-20T16:06:37.918Z,101738.27
2018-08-20T16:10:02.423Z,101744.03
2018-08-20T16:13:26.812Z,101740.25
2018-08-20T16:16:51.265Z,101743.56
2018-08-20T16:20:15.690Z,101732.58
2018-08-20T16:23:40.143Z,101732.89
2018-08-20T16:27:04.590Z,101726.38
2018-08-20T16:30:29.035Z,101729.63
2018-08-20T16:33:53.503Z,101733.95
2018-08-20T16:37:17.950Z,101728.27
2018-08-20T16:40:42.408Z,101722.55
2018-08-20T16:44:07.472Z,101723.54
2018-08-20T16:47:31.985Z,101721.12
2018-08-20T16:50:56.411Z,101716.45
2018-08-20T16:54:20.853Z,101711.27
2018-08-20T16:57:45.298Z,101719.41
2018-08-20T17:01:15.840Z,101717.54
2018-08-20T17:04:41.601Z,101718.92
2018-08-20T17:08:06.210Z,101716.90
2018-08-20T17:11:30.610Z,101721.80
2018-08-20T17:14:55.100Z,101722.81
2018-08-20T17:18:19.531Z,101716.93
2018-08-20T17:21:43.919Z,101722.64
2018-08-20T17:25:14.057Z,101715.93
2018-08-20T17:28:39.524Z,101718.75
2018-08-20T17:32:05.681Z,101723.94
2018-08-20T17:35:30.294Z,101715.66
2018-08-20T17:38:54.698Z,101724.64
2018-08-20T17:42:19.125Z,101718.60
2018-08-20T17:45:43.511Z,101724.31
2018-08-20T17:49:10.849Z,101719.83
2018-08-20T17:52:39.207Z,101718.80
2018-08-20T17:56:03.641Z,101718.93
2018-08-20T17:59:28.104Z,101719.13
2018-08-20T18:02:52.571Z,101728.22
2018-08-20T18:06:17.029Z,101734.61
2018-08-20T18:09:41.422Z,101732.73
2018-08-20T18:13:05.894Z,101734.27
2018-08-20T18:16:30.815Z,101733.23
2018-08-20T18:19:55.518Z,101739.77
2018-08-20T18:23:20.220Z,101746.30
2018-08-20T18:26:50.880Z,101741.78
2018-08-20T18:30:17.687Z,101748.86
2018-08-20T18:33:44.059Z,101753.62
2018-08-20T18:37:08.540Z,101758.59
2018-08-20T18:40:33.298Z,101759.28
2018-08-20T18:43:57.945Z,101761.66
2018-08-20T18:47:22.737Z,101767.47
2018-08-20T18:50:47.717Z,101766.23
2018-08-20T18:54:12.597Z,101773.19
2018-08-20T18:57:39.238Z,101773.80
2018-08-20T19:01:03.839Z,101773.28
2018-08-20T19:04:38.736Z,101773.92
2018-08-20T19:08:06.723Z,101777.83
2018-08-20T19:11:31.349Z,101781.91
2018-08-20T19:14:56.181Z,101782.67
2018-08-20T19:18:24.421Z,101786.37
2018-08-20T19:21:48.921Z,101784.91
2018-08-20T19:25:13.659Z,101784.20
2018-08-20T19:28:38.275Z,101782.49
2018-08-20T19:32:03.912Z,101782.09
2018-08-20T19:35:29.005Z,101786.27
2018-08-20T19:38:54.304Z,101795.80
2018-08-20T19:42:23.919Z,101785.02
2018-08-20T19:45:49.737Z,101789.33
2018-08-20T19:49:15.567Z,101793.20
2018-08-20T19:52:42.523Z,101788.03
2018-08-20T19:56:14.673Z,101788.02
2018-08-20T19:59:40.043Z,101793.37
2018-08-20T20:03:05.069Z,101793.82
2018-08-20T20:06:30.876Z,101794.17
2018-08-20T20:09:55.386Z,101794.05
2018-08-20T20:13:20.650Z,101792.42
2018-08-20T20:16:51.566Z,101793.73
2018-08-20T20:20:16.006Z,101796.04
2018-08-20T20:23:40.468Z,101801.06
2018-08-20T20:27:05.064Z,101794.83
2018-08-20T20:30:29.613Z,101796.84
2018-08-20T20:33:54.444Z,101795.78
2018-08-20T20:37:18.870Z,101805.62
2018-08-20T20:40:43.585Z,101806.81
2018-08-20T20:44:13.443Z,101806.27
2018-08-20T20:47:37.953Z,101809.67
2018-08-20T20:51:02.477Z,101810.56
2018-08-20T20:54:27.691Z,101805.08
2018-08-20T20:57:52.125Z,101806.78
2018-08-20T21:01:16.615Z,101814.69
2018-08-20T21:04:40.992Z,101815.93
2018-08-20T21:08:05.443Z,101814.27
2018-08-20T21:11:29.912Z,101822.30
2018-08-20T21:14:54.317Z,101828.98
2018-08-20T21:18:18.755Z,101828.98
2018-08-20T21:21:43.213Z,101826.78
2018-08-20T21:25:09.179Z,101826.39
2018-08-20T21:28:39.552Z,101826.72
2018-08-20T21:32:04.028Z,101828.61
2018-08-20T21:35:28.465Z,101838.23
2018-08-20T21:38:52.968Z,101832.78
2018-08-20T21:42:17.427Z,101833.66
2018-08-20T21:45:41.803Z,101839.90
2018-08-20T21:49:07.042Z,101837.19
2018-08-20T21:52:31.478Z,101838.97
2018-08-20T21:55:56.132Z,101836.93
2018-08-20T21:59:20.556Z,101841.88
2018-08-20T22:02:48.801Z,101843.58
2018-08-20T22:06:13.784Z,101840.48
2018-08-20T22:09:38.268Z,101844.38
2018-08-20T22:13:02.731Z,101836.48
2018-08-20T22:16:27.217Z,101841.44
2018-08-20T22:19:51.695Z,101842.91
2018-08-20T22:23:25.273Z,101837.06
2018-08-20T22:27:12.671Z,101842.91
2018-08-20T22:30:38.886Z,101845.88
2018-08-20T22:34:06.405Z,101839.00
2018-08-20T22:37:30.801Z,101844.04
2018-08-20T22:40:55.253Z,101844.81
2018-08-20T22:44:19.713Z,101834.33
2018-08-20T22:47:44.678Z,101837.84
2018-08-20T22:51:12.184Z,101840.23
2018-08-20T22:54:36.616Z,101844.20
2018-08-20T22:58:11.496Z,101839.72
2018-08-20T23:01:35.951Z,101844.14
2018-08-20T23:05:02.320Z,101842.77
2018-08-20T23:08:26.751Z,101842.06
2018-08-20T23:11:51.178Z,101844.55
2018-08-20T23:15:15.611Z,101843.49
2018-08-20T23:18:40.041Z,101846.94
2018-08-20T23:22:04.487Z,101850.16
2018-08-20T23:25:28.981Z,101857.16
2018-08-20T23:28:53.407Z,101863.63
2018-08-20T23:32:17.804Z,101858.48
2018-08-20T23:35:42.196Z,101861.44
2018-08-20T23:39:09.697Z,101863.94
2018-08-20T23:42:34.147Z,101862.77
2018-08-20T23:45:58.677Z,101860.85
2018-08-20T23:49:23.111Z,101861.23
2018-08-20T23:52:47.545Z,101860.66
2018-08-20T23:56:11.984Z,101857.75
2018-08-20T23:59:36.449Z,101857.20
